Time;durP1;ratioP1;P1;durP2;ratioP2;P2;SDS_P1;SDS_P2;PMS_P1;PMS_P2;Temp;Humidity;BMP_temperature;BMP_pressure;BME280_temperature;BME280_humidity;BME280_pressure;Samples;Min_cycle;Max_cycle;Signal;HPM_P1;HPM_P2
2024/04/20 00:01:40;;;;;;;10.70;7.50;;;;;;;3.30;87.08;99468.44;105717;1261;72669;-76
2024/04/20 00:04:08;;;;;;;8.90;7.00;;;;;;;3.26;87.35;99471.60;105926;1259;61349;-76
2024/04/20 00:06:36;;;;;;;8.70;6.10;;;;;;;3.25;87.41;99475.30;105837;1263;61201;-79
2024/04/20 00:09:03;;;;;;;8.70;6.40;;;;;;;3.32;87.22;99472.69;106036;1256;74549;-78
2024/04/20 00:11:30;;;;;;;10.80;7.60;;;;;;;3.29;87.07;99475.88;106677;1259;70983;-75
2024/04/20 00:14:00;;;;;;;7.80;5.70;;;;;;;3.22;87.17;99473.00;106014;1253;71574;-76
2024/04/20 00:16:27;;;;;;;8.50;6.30;;;;;;;3.22;87.18;99476.14;105840;1259;61261;-77
2024/04/20 00:18:54;;;;;;;9.10;7.10;;;;;;;3.28;86.95;99478.73;106251;1259;61158;-77
2024/04/20 00:21:21;;;;;;;8.20;6.30;;;;;;;3.26;86.90;99485.09;106426;1256;74755;-78
2024/04/20 00:23:50;;;;;;;8.00;6.60;;;;;;;3.19;86.91;99489.52;106126;1259;70727;-78
2024/04/20 00:26:17;;;;;;;8.70;5.90;;;;;;;3.19;86.83;99490.20;106289;1255;72978;-78
2024/04/20 00:28:46;;;;;;;6.50;5.40;;;;;;;3.24;86.42;99495.02;106590;1256;61235;-76
2024/04/20 00:31:13;;;;;;;8.60;6.40;;;;;;;3.20;86.39;99502.56;106701;1260;61142;-73
2024/04/20 00:33:40;;;;;;;9.40;6.90;;;;;;;3.14;86.84;99506.13;105865;1259;73604;-75
2024/04/20 00:36:08;;;;;;;7.70;6.10;;;;;;;3.20;86.71;99499.61;105899;1253;69997;-77
2024/04/20 00:38:35;;;;;;;9.40;6.60;;;;;;;3.21;86.56;99501.95;105732;1256;72568;-75
2024/04/20 00:41:04;;;;;;;8.20;6.10;;;;;;;3.13;86.40;99504.20;105746;1258;61385;-76
2024/04/20 00:43:31;;;;;;;8.60;6.10;;;;;;;3.08;86.55;99506.13;105710;1253;61118;-79
2024/04/20 00:45:58;;;;;;;8.60;5.80;;;;;;;3.13;86.24;99515.56;105920;1255;74592;-80
2024/04/20 00:48:26;;;;;;;9.00;6.00;;;;;;;3.12;86.16;99514.39;105911;1255;70012;-77
2024/04/20 00:50:53;;;;;;;10.10;6.70;;;;;;;3.06;86.25;99511.91;106042;1255;71542;-80
2024/04/20 00:53:21;;;;;;;9.60;6.20;;;;;;;2.99;86.35;99513.52;105968;1256;61342;-79
2024/04/20 00:55:50;;;;;;;7.40;5.20;;;;;;;3.04;86.02;99515.76;105641;1255;61427;-81
2024/04/20 00:58:19;;;;;;;9.50;6.10;;;;;;;3.11;85.84;99515.21;105807;1256;77120;-79
2024/04/20 01:00:46;;;;;;;7.70;5.60;;;;;;;3.06;85.95;99510.52;105874;1256;70218;-79
2024/04/20 01:03:14;;;;;;;9.20;5.50;;;;;;;3.02;86.34;99514.91;105769;1259;71832;-80
2024/04/20 01:05:41;;;;;;;8.70;5.30;;;;;;;3.08;85.96;99515.45;105648;1255;61243;-78
2024/04/20 01:08:08;;;;;;;6.60;5.50;;;;;;;3.12;85.86;99516.44;106249;1261;61139;-81
2024/04/20 01:10:36;;;;;;;7.50;5.80;;;;;;;3.09;85.84;99513.44;105894;1254;74400;-83
2024/04/20 01:13:04;;;;;;;7.70;5.00;;;;;;;3.02;85.84;99517.55;105838;1261;69240;-83
2024/04/20 01:15:32;;;;;;;9.00;6.00;;;;;;;3.04;85.49;99516.83;106957;1256;75152;-79
2024/04/20 01:18:00;;;;;;;7.60;5.50;;;;;;;3.12;85.42;99517.71;108290;1255;59526;-79
2024/04/20 01:20:28;;;;;;;8.20;5.80;;;;;;;3.11;85.25;99521.66;105930;1262;61182;-80
2024/04/20 01:22:58;;;;;;;9.90;6.10;;;;;;;3.06;85.48;99520.98;105983;1255;75005;-81
2024/04/20 01:25:26;;;;;;;10.80;5.80;;;;;;;3.03;85.08;99526.67;108544;1255;70234;-81
2024/04/20 01:27:53;;;;;;;8.20;5.50;;;;;;;3.11;84.69;99528.83;108800;1255;71425;-80
2024/04/20 01:30:21;;;;;;;8.00;5.90;;;;;;;3.11;84.58;99529.88;108412;1257;61261;-78
2024/04/20 01:32:48;;;;;;;10.50;5.90;;;;;;;3.04;84.62;99532.53;106234;1261;61524;-80
2024/04/20 01:35:16;;;;;;;7.40;4.60;;;;;;;3.07;84.98;99534.22;105838;1253;74669;-81
2024/04/20 01:37:44;;;;;;;8.60;5.30;;;;;;;3.11;84.72;99535.79;105846;1255;72775;-80
2024/04/20 01:40:11;;;;;;;7.40;5.40;;;;;;;3.09;84.53;99534.25;105774;1255;71443;-80
2024/04/20 01:42:38;;;;;;;9.10;5.20;;;;;;;3.01;84.59;99534.69;105803;1256;61321;-80
2024/04/20 01:45:06;;;;;;;6.80;5.40;;;;;;;3.04;84.45;99534.67;105989;1259;61115;-80
2024/04/20 01:47:33;;;;;;;8.80;5.50;;;;;;;3.06;84.52;99537.45;105738;1261;74928;-80
2024/04/20 01:50:00;;;;;;;6.30;5.00;;;;;;;2.99;84.35;99538.35;105814;1255;71624;-80
2024/04/20 01:52:27;;;;;;;6.80;5.60;;;;;;;2.93;84.37;99537.45;106169;1256;73025;-80
2024/04/20 01:54:55;;;;;;;7.10;4.70;;;;;;;2.94;84.16;99545.05;105926;1261;61117;-80
2024/04/20 01:57:22;;;;;;;7.80;5.90;;;;;;;3.03;83.75;99541.70;106451;1255;61112;-79
2024/04/20 01:59:50;;;;;;;8.40;5.80;;;;;;;3.03;83.77;99549.58;106237;1260;74719;-78
2024/04/20 02:02:19;;;;;;;7.80;5.40;;;;;;;2.98;83.52;99547.56;105808;1256;69378;-80
2024/04/20 02:04:46;;;;;;;6.80;4.80;;;;;;;3.02;83.28;99547.27;105912;1256;72741;-82
2024/04/20 02:07:14;;;;;;;7.20;5.30;;;;;;;3.09;82.64;99547.58;105901;1255;61296;-80
2024/04/20 02:09:44;;;;;;;7.00;5.70;;;;;;;3.07;82.90;99545.97;105772;1256;61124;-82
2024/04/20 02:12:12;;;;;;;5.60;4.60;;;;;;;3.01;82.54;99549.74;105760;1255;73636;-81
2024/04/20 02:14:39;;;;;;;7.90;4.80;;;;;;;3.04;82.84;99546.20;105758;1261;69505;-82
2024/04/20 02:17:06;;;;;;;5.70;4.90;;;;;;;3.10;82.49;99543.91;105928;1256;72719;-78
2024/04/20 02:19:34;;;;;;;7.10;4.80;;;;;;;3.08;81.91;99543.45;106433;1256;61320;-79
2024/04/20 02:22:01;;;;;;;9.10;5.40;;;;;;;3.02;82.04;99542.48;108482;1255;61223;-77
2024/04/20 02:24:29;;;;;;;7.30;4.50;;;;;;;3.02;81.69;99543.73;107537;1255;75544;-76
2024/04/20 02:26:56;;;;;;;8.90;5.60;;;;;;;3.12;81.46;99543.75;107451;1255;69021;-81
2024/04/20 02:29:24;;;;;;;6.40;4.50;;;;;;;3.14;81.65;99545.17;105964;1256;72753;-81
2024/04/20 02:31:51;;;;;;;6.50;4.90;;;;;;;3.11;81.98;99545.60;105880;1256;61247;-81
2024/04/20 02:34:19;;;;;;;6.00;5.00;;;;;;;3.07;82.02;99547.15;105860;1263;61150;-78
2024/04/20 02:36:46;;;;;;;5.80;5.20;;;;;;;3.11;82.05;99547.92;106135;1260;74741;-81
2024/04/20 02:39:14;;;;;;;7.60;5.80;;;;;;;3.17;81.75;99549.86;105653;1261;70388;-78
2024/04/20 02:41:41;;;;;;;7.90;6.10;;;;;;;3.15;82.05;99553.17;106508;1255;72483;-79
2024/04/20 02:44:08;;;;;;;9.10;5.70;;;;;;;3.08;82.49;99557.23;106510;1255;61385;-78
2024/04/20 02:46:36;;;;;;;8.60;5.50;;;;;;;3.06;82.46;99552.69;105872;1256;61421;-81
2024/04/20 02:49:03;;;;;;;8.00;5.70;;;;;;;3.13;82.15;99549.66;105892;1258;73350;-82
2024/04/20 02:51:30;;;;;;;7.90;5.80;;;;;;;3.12;82.39;99549.39;105796;1256;70246;-77
2024/04/20 02:53:58;;;;;;;7.70;5.10;;;;;;;3.06;82.62;99548.30;105735;1259;72530;-77
2024/04/20 02:56:25;;;;;;;8.50;6.00;;;;;;;3.04;82.75;99557.42;105760;1255;61355;-79
2024/04/20 02:58:55;;;;;;;7.50;5.30;;;;;;;3.10;82.26;99558.11;105789;1256;61163;-81
2024/04/20 03:01:23;;;;;;;7.20;5.90;;;;;;;3.10;82.18;99557.95;107881;1259;75144;-79
2024/04/20 03:03:51;;;;;;;8.20;5.40;;;;;;;3.04;82.29;99557.58;106355;1261;69529;-80
2024/04/20 03:06:21;;;;;;;8.10;5.30;;;;;;;3.02;82.37;99558.28;105952;1259;72690;-79
2024/04/20 03:08:48;;;;;;;8.20;5.50;;;;;;;3.09;82.27;99560.34;105757;1259;61311;-78
2024/04/20 03:11:15;;;;;;;7.10;5.60;;;;;;;3.10;82.31;99565.44;105675;1253;61175;-79
2024/04/20 03:13:43;;;;;;;7.70;5.80;;;;;;;3.07;82.69;99568.71;105839;1259;74701;-78
2024/04/20 03:16:10;;;;;;;7.90;6.20;;;;;;;3.06;82.66;99570.70;107421;1253;69036;-79
2024/04/20 03:18:37;;;;;;;7.10;5.70;;;;;;;3.14;82.65;99572.85;108667;1255;71168;-78
2024/04/20 03:21:05;;;;;;;7.00;5.10;;;;;;;3.15;82.73;99571.55;106806;1258;61646;-79
2024/04/20 03:23:36;;;;;;;10.00;5.80;;;;;;;3.12;82.52;99571.80;106713;1255;61255;-78
2024/04/20 03:26:05;;;;;;;6.50;5.20;;;;;;;3.12;82.62;99564.95;107781;1256;73483;-78
2024/04/20 03:28:32;;;;;;;7.40;5.60;;;;;;;3.26;82.55;99567.15;107373;1255;69329;-78
2024/04/20 03:31:00;;;;;;;7.10;6.10;;;;;;;3.29;82.45;99570.77;107572;1257;71477;-79
2024/04/20 03:33:34;;;;;;;9.40;6.10;;;;;;;3.27;82.61;99574.09;107996;1255;61345;-80
2024/04/20 03:36:01;;;;;;;8.30;5.70;;;;;;;3.26;82.71;99575.36;106117;1257;61225;-80
2024/04/20 03:38:29;;;;;;;9.60;5.90;;;;;;;3.34;81.92;99578.96;106798;1255;72484;-79
2024/04/20 03:40:56;;;;;;;8.90;6.10;;;;;;;3.37;81.83;99585.02;105822;1264;68507;-80
2024/04/20 03:43:23;;;;;;;8.80;5.70;;;;;;;3.32;81.77;99590.64;105805;1255;72723;-78
2024/04/20 03:45:51;;;;;;;7.30;5.90;;;;;;;3.29;81.62;99596.14;106105;1259;61357;-78
2024/04/20 03:48:18;;;;;;;9.50;5.10;;;;;;;3.35;81.66;99593.59;105679;1256;61302;-75
2024/04/20 03:50:55;;;;;;;9.20;6.80;;;;;;;3.44;81.20;99593.55;105768;1261;74860;-76
2024/04/20 03:53:23;;;;;;;8.10;5.40;;;;;;;3.45;81.05;99592.27;105830;1261;68778;-78
2024/04/20 03:55:53;;;;;;;9.00;6.50;;;;;;;3.47;81.38;99591.34;105777;1256;72768;-76
2024/04/20 03:58:21;;;;;;;8.40;5.50;;;;;;;3.57;81.27;99591.77;105769;1261;61291;-78
2024/04/20 04:00:48;;;;;;;8.30;6.30;;;;;;;3.72;80.28;99594.17;105761;1256;61204;-76
2024/04/20 04:03:22;;;;;;;7.30;5.80;;;;;;;3.78;80.36;99595.08;105852;1256;75232;-76
2024/04/20 04:05:50;;;;;;;7.90;5.90;;;;;;;3.85;80.52;99594.73;106095;1260;69893;-77
2024/04/20 04:08:18;;;;;;;8.70;6.20;;;;;;;3.98;80.52;99595.73;106056;1261;72660;-77
2024/04/20 04:10:45;;;;;;;7.50;5.50;;;;;;;4.21;79.96;99599.73;106832;1256;61284;-78
2024/04/20 04:13:14;;;;;;;10.20;6.50;;;;;;;4.36;79.34;99601.54;107782;1255;61062;-79
2024/04/20 04:15:41;;;;;;;7.40;6.00;;;;;;;4.46;79.09;99607.77;106970;1256;74645;-76
2024/04/20 04:18:09;;;;;;;7.90;6.30;;;;;;;4.56;78.35;99607.27;106037;1259;69164;-77
2024/04/20 04:20:36;;;;;;;9.00;6.60;;;;;;;4.80;78.26;99608.83;106105;1255;73243;-77
2024/04/20 04:23:05;;;;;;;8.10;5.90;;;;;;;5.13;78.04;99610.54;106041;1255;61246;-79
2024/04/20 04:25:35;;;;;;;10.80;6.80;;;;;;;5.27;76.44;99614.02;106004;1256;61285;-78
2024/04/20 04:28:02;;;;;;;9.40;7.30;;;;;;;5.27;76.32;99615.77;106122;1256;74677;-75
2024/04/20 04:30:32;;;;;;;9.10;7.10;;;;;;;5.27;76.07;99622.93;106079;1260;70506;-76
2024/04/20 04:32:59;;;;;;;10.50;7.80;;;;;;;5.47;75.26;99622.56;106425;1255;72468;-75
2024/04/20 04:35:27;;;;;;;11.30;7.90;;;;;;;5.73;75.42;99625.14;106376;1255;61282;-77
2024/04/20 04:37:54;;;;;;;12.00;8.10;;;;;;;5.86;75.22;99627.42;106333;1263;61233;-75
2024/04/20 04:40:23;;;;;;;9.90;8.50;;;;;;;5.90;74.90;99629.42;106500;1260;74690;-77
2024/04/20 04:42:52;;;;;;;11.70;8.60;;;;;;;5.85;74.71;99632.16;106370;1255;68719;-79
2024/04/20 04:45:23;;;;;;;12.00;8.10;;;;;;;5.81;74.30;99636.35;106065;1257;71863;-77
2024/04/20 04:47:50;;;;;;;9.80;8.20;;;;;;;5.84;74.15;99643.09;105979;1257;61229;-79
2024/04/20 04:50:18;;;;;;;10.20;8.10;;;;;;;5.78;73.81;99642.82;105842;1264;61244;-79
2024/04/20 04:52:45;;;;;;;12.50;9.20;;;;;;;5.64;74.05;99644.95;106063;1261;74801;-77
2024/04/20 04:55:12;;;;;;;13.90;8.40;;;;;;;5.54;74.66;99650.90;105979;1255;69073;-76
2024/04/20 04:57:39;;;;;;;12.90;9.00;;;;;;;5.54;75.09;99651.47;106038;1256;71903;-78
2024/04/20 05:00:09;;;;;;;9.70;7.10;;;;;;;5.67;75.22;99651.33;106009;1263;61271;-80
2024/04/20 05:02:36;;;;;;;12.80;9.50;;;;;;;5.74;74.99;99648.31;105970;1256;61083;-76
2024/04/20 05:05:04;;;;;;;11.10;7.90;;;;;;;5.77;74.86;99646.55;105994;1261;74663;-79
2024/04/20 05:07:31;;;;;;;10.50;7.70;;;;;;;5.78;74.83;99646.61;107027;1255;70544;-78
2024/04/20 05:09:58;;;;;;;11.30;7.60;;;;;;;5.91;74.88;99647.41;109016;1253;71510;-79
2024/04/20 05:12:26;;;;;;;12.20;8.80;;;;;;;6.11;74.75;99648.28;108477;1256;61355;-79
2024/04/20 05:14:54;;;;;;;13.50;8.60;;;;;;;6.21;75.19;99653.27;106311;1259;60868;-79
2024/04/20 05:17:21;;;;;;;14.30;9.00;;;;;;;6.32;75.26;99660.45;106028;1261;74682;-81
2024/04/20 05:19:49;;;;;;;14.40;9.40;;;;;;;6.41;75.41;99664.48;106140;1255;68862;-80
2024/04/20 05:22:16;;;;;;;13.20;7.30;;;;;;;6.51;74.75;99668.14;106024;1261;72612;-78
2024/04/20 05:24:44;;;;;;;13.20;8.80;;;;;;;6.67;73.27;99669.59;108099;1255;60090;-78
2024/04/20 05:27:11;;;;;;;14.50;8.90;;;;;;;6.76;72.74;99669.84;109201;1255;58736;-77
2024/04/20 05:29:38;;;;;;;12.50;9.10;;;;;;;6.80;72.93;99671.55;109126;1255;73275;-77
2024/04/20 05:32:06;;;;;;;13.40;9.70;;;;;;;6.86;72.45;99678.21;109052;1255;69002;-77
2024/04/20 05:34:34;;;;;;;14.40;9.60;;;;;;;6.89;72.20;99680.57;108954;1256;71931;-76
2024/04/20 05:37:02;;;;;;;13.10;9.30;;;;;;;6.92;71.49;99679.25;109010;1255;60375;-77
2024/04/20 05:39:32;;;;;;;13.30;9.00;;;;;;;7.03;71.38;99678.66;108964;1255;58997;-76
2024/04/20 05:42:01;;;;;;;10.60;7.80;;;;;;;7.11;70.93;99681.16;108961;1255;73363;-77
2024/04/20 05:44:28;;;;;;;10.40;8.10;;;;;;;7.12;71.03;99679.79;109287;1253;68900;-79
2024/04/20 05:46:55;;;;;;;9.90;8.50;;;;;;;7.15;71.22;99684.39;108960;1255;71309;-79
2024/04/20 05:49:23;;;;;;;12.20;9.00;;;;;;;7.19;70.73;99681.89;108924;1255;60928;-77
2024/04/20 05:51:50;;;;;;;10.90;7.30;;;;;;;7.26;70.38;99683.94;108868;1255;60105;-78
2024/04/20 05:54:19;;;;;;;13.40;8.00;;;;;;;7.40;70.20;99688.55;109204;1254;73649;-78
2024/04/20 05:56:46;;;;;;;13.30;7.80;;;;;;;7.51;70.35;99685.73;109181;1255;68751;-81
2024/04/20 05:59:13;;;;;;;10.60;7.70;;;;;;;7.56;70.15;99688.63;109036;1253;71792;-81
2024/04/20 06:01:42;;;;;;;9.70;7.00;;;;;;;7.62;70.21;99690.29;108939;1255;58906;-82
2024/04/20 06:04:11;;;;;;;8.90;6.70;;;;;;;7.71;70.41;99696.08;109092;1253;58898;-83
2024/04/20 06:06:38;;;;;;;7.70;6.40;;;;;;;7.82;69.56;99695.55;109024;1255;73406;-82
2024/04/20 06:09:08;;;;;;;8.40;6.40;;;;;;;7.99;69.03;99697.61;109269;1256;68990;-83
2024/04/20 06:11:39;;;;;;;12.40;6.50;;;;;;;8.11;68.41;99705.02;108345;1255;71916;-82
2024/04/20 06:14:07;;;;;;;10.20;6.40;;;;;;;8.14;67.88;99707.16;108953;1255;61309;-82
2024/04/20 06:16:35;;;;;;;8.30;5.60;;;;;;;8.13;67.24;99704.28;109073;1255;59380;-83
2024/04/20 06:19:02;;;;;;;8.70;6.10;;;;;;;8.19;67.29;99709.85;109068;1255;73627;-82
2024/04/20 06:21:30;;;;;;;6.90;6.00;;;;;;;8.24;66.79;99708.30;109131;1255;68700;-82
2024/04/20 06:23:57;;;;;;;5.90;5.30;;;;;;;8.27;65.91;99701.67;109137;1258;71625;-81
2024/04/20 06:26:26;;;;;;;6.30;4.60;;;;;;;8.31;66.36;99703.20;108970;1255;59266;-83
2024/04/20 06:29:00;;;;;;;5.80;4.00;;;;;;;8.40;66.34;99710.45;108999;1253;211993;-83
2024/04/20 06:33:19;;;;;;;4.20;3.60;;;;;;;8.65;63.31;99715.16;105914;1292;599441;-83
2024/04/20 06:35:46;;;;;;;3.80;2.90;;;;;;;8.61;61.38;99710.60;108420;1269;61282;-84
2024/04/20 06:38:14;;;;;;;5.10;3.60;;;;;;;8.59;61.67;99709.77;108394;1265;58818;-82
2024/04/20 06:40:41;;;;;;;5.60;4.10;;;;;;;8.60;62.18;99711.30;108425;1266;71632;-84
2024/04/20 06:43:08;;;;;;;4.70;3.60;;;;;;;8.64;62.54;99705.72;108526;1266;72535;-82
2024/04/20 06:45:36;;;;;;;5.90;4.40;;;;;;;8.70;62.77;99706.19;107955;1267;71198;-83
2024/04/20 06:48:04;;;;;;;6.00;4.10;;;;;;;8.76;61.67;99711.13;108450;1262;58433;-80
2024/04/20 06:50:32;;;;;;;4.80;3.80;;;;;;;8.77;62.14;99710.08;108075;1262;60332;-80
2024/04/20 06:53:01;;;;;;;5.20;4.00;;;;;;;8.79;61.57;99711.95;108509;1263;72777;-81
2024/04/20 06:55:31;;;;;;;9.40;4.30;;;;;;;8.85;61.85;99715.28;108666;1259;69247;-82
2024/04/20 06:57:58;;;;;;;5.00;3.70;;;;;;;8.90;61.85;99718.94;109086;1253;71436;-81
2024/04/20 07:00:29;;;;;;;6.20;4.80;;;;;;;8.98;61.65;99718.02;108883;1259;59130;-84
2024/04/20 07:02:57;;;;;;;7.70;5.50;;;;;;;9.01;61.67;99721.16;109225;1253;62902;-81
2024/04/20 07:05:24;;;;;;;7.10;4.60;;;;;;;9.04;61.40;99721.90;109006;1253;73761;-81
2024/04/20 07:07:52;;;;;;;6.80;4.70;;;;;;;9.06;61.67;99716.94;109148;1253;68740;-81
2024/04/20 07:10:19;;;;;;;6.10;4.20;;;;;;;9.09;60.97;99718.44;108795;1254;71348;-82
2024/04/20 07:12:47;;;;;;;6.70;3.70;;;;;;;9.14;60.70;99712.77;108960;1254;61045;-81
2024/04/20 07:15:14;;;;;;;5.90;4.20;;;;;;;9.20;60.66;99718.48;108698;1253;59301;-82
2024/04/20 07:17:41;;;;;;;6.90;4.60;;;;;;;9.23;59.31;99714.95;108803;1254;72558;-83
2024/04/20 07:20:09;;;;;;;6.50;4.50;;;;;;;9.27;59.52;99722.58;108187;1253;69013;-80
2024/04/20 07:22:36;;;;;;;6.60;4.00;;;;;;;9.27;57.18;99721.92;108380;1253;73434;-80
2024/04/20 07:25:04;;;;;;;7.00;4.80;;;;;;;9.22;56.30;99725.55;108568;1250;58538;-81
2024/04/20 07:27:32;;;;;;;7.20;5.60;;;;;;;9.17;57.30;99731.75;108444;1250;60431;-83
2024/04/20 07:29:59;;;;;;;8.60;4.80;;;;;;;9.16;57.32;99730.14;109071;1250;75217;-78
2024/04/20 07:32:27;;;;;;;6.60;4.40;;;;;;;9.18;57.02;99741.23;108740;1253;68900;-78
2024/04/20 07:34:54;;;;;;;9.00;5.80;;;;;;;9.19;57.43;99736.08;108505;1253;74758;-77
2024/04/20 07:37:22;;;;;;;9.00;5.00;;;;;;;9.22;58.11;99735.59;108240;1256;59248;-77
2024/04/20 07:39:49;;;;;;;8.10;4.70;;;;;;;9.28;58.47;99735.92;108939;1253;59269;-77
2024/04/20 07:42:17;;;;;;;4.80;3.90;;;;;;;9.36;58.27;99738.79;108754;1252;74550;-79
2024/04/20 07:44:44;;;;;;;4.20;3.10;;;;;;;9.44;58.08;99730.86;109045;1252;72674;-78
2024/04/20 07:47:11;;;;;;;5.70;2.60;;;;;;;9.55;58.30;99729.73;108414;1253;72102;-78
2024/04/20 07:49:44;;;;;;;3.40;2.30;;;;;;;9.66;57.62;99722.54;108739;1253;59348;-78
2024/04/20 07:52:11;;;;;;;2.90;2.40;;;;;;;9.77;57.42;99716.60;108774;1253;61020;-79
2024/04/20 07:54:39;;;;;;;2.90;2.30;;;;;;;9.90;56.71;99721.27;108761;1254;75026;-78
2024/04/20 07:57:07;;;;;;;3.80;2.80;;;;;;;9.99;55.42;99723.41;108801;1254;71309;-78
2024/04/20 07:59:35;;;;;;;2.80;2.50;;;;;;;10.03;54.11;99729.35;108714;1254;71091;-79
2024/04/20 08:02:03;;;;;;;3.70;2.70;;;;;;;10.05;54.57;99718.73;108840;1254;59593;-78
2024/04/20 08:04:31;;;;;;;3.80;3.20;;;;;;;10.13;55.25;99723.61;108591;1256;61103;-78
2024/04/20 08:06:58;;;;;;;2.60;2.30;;;;;;;10.23;55.12;99721.95;108506;1254;75033;-79
2024/04/20 08:09:26;;;;;;;3.10;2.50;;;;;;;10.32;53.28;99725.99;108558;1254;68868;-80
2024/04/20 08:11:53;;;;;;;2.50;2.10;;;;;;;10.36;51.84;99728.92;107282;1254;73846;-78
2024/04/20 08:14:21;;;;;;;3.50;2.60;;;;;;;10.39;52.08;99731.20;106659;1254;60547;-78
2024/04/20 08:16:48;;;;;;;2.70;2.30;;;;;;;10.43;52.74;99743.36;106616;1254;62241;-76
2024/04/20 08:19:15;;;;;;;3.40;2.30;;;;;;;10.46;52.82;99740.40;106788;1254;72883;-76
2024/04/20 08:21:43;;;;;;;3.20;2.20;;;;;;;10.48;53.03;99737.68;106390;1254;72737;-78
2024/04/20 08:24:11;;;;;;;2.70;2.30;;;;;;;10.52;52.67;99732.70;106360;1256;72781;-79
2024/04/20 08:26:38;;;;;;;2.80;2.20;;;;;;;10.55;52.10;99721.16;106583;1254;62483;-79
2024/04/20 08:29:06;;;;;;;3.00;2.20;;;;;;;10.60;52.77;99724.65;106531;1254;62149;-76
2024/04/20 08:31:33;;;;;;;3.30;2.50;;;;;;;10.68;52.51;99728.81;106531;1258;72854;-77
2024/04/20 08:34:00;;;;;;;3.90;2.50;;;;;;;10.78;52.02;99720.19;106578;1260;70684;-75
2024/04/20 08:36:28;;;;;;;3.80;2.40;;;;;;;10.92;52.20;99718.41;106370;1256;74790;-77
2024/04/20 08:38:55;;;;;;;2.30;1.90;;;;;;;11.07;52.68;99719.30;106322;1254;62330;-76
2024/04/20 08:41:24;;;;;;;2.50;1.80;;;;;;;11.22;50.01;99728.99;106404;1256;59301;-78
2024/04/20 08:43:53;;;;;;;2.00;1.80;;;;;;;11.29;48.44;99727.86;106599;1254;73207;-78
2024/04/20 08:46:21;;;;;;;2.40;1.80;;;;;;;11.33;48.63;99724.92;106745;1254;72207;-77
2024/04/20 08:48:49;;;;;;;3.40;2.10;;;;;;;11.35;47.48;99720.23;106819;1254;73843;-77
2024/04/20 08:51:20;;;;;;;2.10;1.70;;;;;;;11.41;47.39;99724.95;107483;1254;59781;-80
2024/04/20 08:53:49;;;;;;;1.90;1.70;;;;;;;11.46;47.04;99726.85;108633;1254;60199;-82
2024/04/20 08:56:18;;;;;;;1.90;1.70;;;;;;;11.53;48.12;99726.58;108647;1254;72937;-83
2024/04/20 08:58:45;;;;;;;3.80;2.20;;;;;;;11.65;48.37;99734.55;108592;1254;69657;-82
2024/04/20 09:01:16;;;;;;;3.60;1.80;;;;;;;11.80;49.28;99725.63;107948;1254;74454;-81
2024/04/20 09:03:45;;;;;;;4.00;2.30;;;;;;;12.01;49.75;99707.31;108057;1254;60826;-81
2024/04/20 09:06:13;;;;;;;2.10;1.80;;;;;;;12.26;49.40;99696.73;108633;1254;60400;-82
2024/04/20 09:08:41;;;;;;;3.30;2.10;;;;;;;12.61;50.05;99690.69;108709;1254;74756;-81
2024/04/20 09:11:10;;;;;;;2.70;2.30;;;;;;;13.13;48.20;99699.73;107782;1255;72699;-86
2024/04/20 09:13:39;;;;;;;3.30;1.90;;;;;;;13.65;47.24;99688.42;107298;1256;71390;-84
2024/04/20 09:16:07;;;;;;;2.30;2.00;;;;;;;14.17;48.37;99679.13;107364;1254;62599;-83
2024/04/20 09:18:35;;;;;;;2.80;2.20;;;;;;;14.86;49.19;99672.71;107397;1254;61450;-84
2024/04/20 09:21:03;;;;;;;3.30;2.10;;;;;;;15.63;46.91;99673.96;107420;1254;74441;-82
2024/04/20 09:23:31;;;;;;;4.40;2.20;;;;;;;16.35;45.25;99674.04;107392;1262;69874;-83
2024/04/20 09:26:00;;;;;;;5.40;2.10;;;;;;;16.92;42.86;99676.85;107290;1256;72992;-84
2024/04/20 09:28:32;;;;;;;2.60;2.40;;;;;;;17.29;42.93;99684.31;107115;1254;62499;-83
2024/04/20 09:31:00;;;;;;;2.80;2.50;;;;;;;17.52;42.99;99679.61;108052;1253;60707;-81
2024/04/20 09:33:28;;;;;;;6.80;2.70;;;;;;;17.74;41.93;99681.42;107091;1263;72444;-83
2024/04/20 09:35:56;;;;;;;3.10;2.50;;;;;;;17.78;40.95;99679.33;107497;1255;72325;-83
2024/04/20 09:38:29;;;;;;;;;;;;;;;17.82;40.90;99684.20;107605;1259;72763;-85
2024/04/20 09:40:59;;;;;;;4.50;2.40;;;;;;;18.00;42.69;99681.20;107541;1253;60578;-83
2024/04/20 09:43:29;;;;;;;2.60;2.20;;;;;;;18.52;42.82;99679.64;107263;1259;59410;-82
2024/04/20 09:45:56;;;;;;;4.60;2.20;;;;;;;19.12;39.91;99683.02;107449;1254;74819;-82
2024/04/20 09:48:24;;;;;;;3.40;2.60;;;;;;;19.38;38.71;99679.58;108583;1254;71231;-81
2024/04/20 09:51:01;;;;;;;2.90;2.60;;;;;;;19.37;38.55;99667.86;108101;1256;73836;-84
2024/04/20 09:53:33;;;;;;;2.70;2.50;;;;;;;19.31;38.85;99660.42;106983;1254;62113;-84
2024/04/20 09:56:02;;;;;;;2.80;2.50;;;;;;;19.28;38.32;99662.35;106679;1253;60027;-83
2024/04/20 09:58:30;;;;;;;3.10;2.80;;;;;;;19.41;38.49;99660.09;106527;1254;75938;-82
2024/04/20 10:00:59;;;;;;;2.60;2.30;;;;;;;19.74;37.99;99661.31;106739;1254;71113;-82
2024/04/20 10:03:27;;;;;;;3.40;2.80;;;;;;;20.13;37.77;99666.23;106635;1256;73996;-84
2024/04/20 10:05:54;;;;;;;5.40;2.60;;;;;;;20.33;36.46;99670.10;106087;1256;60904;-82
2024/04/20 10:08:22;;;;;;;3.00;2.30;;;;;;;20.14;36.43;99659.46;106480;1254;60885;-83
2024/04/20 10:10:50;;;;;;;4.60;2.60;;;;;;;19.84;36.68;99658.61;106263;1254;73078;-82
2024/04/20 10:13:18;;;;;;;2.70;2.50;;;;;;;19.49;36.47;99664.30;106409;1254;70259;-80
2024/04/20 10:15:47;;;;;;;3.10;2.80;;;;;;;19.00;36.46;99669.02;106474;1256;75160;-82
2024/04/20 10:18:15;;;;;;;2.80;2.40;;;;;;;18.63;37.00;99664.97;106493;1254;62191;-80
2024/04/20 10:20:43;;;;;;;3.00;2.70;;;;;;;18.45;37.32;99673.62;106073;1254;61874;-77
2024/04/20 10:23:17;;;;;;;2.50;2.30;;;;;;;18.39;37.48;99675.58;106193;1258;72836;-78
2024/04/20 10:25:54;;;;;;;2.80;2.20;;;;;;;18.29;36.99;99681.67;106417;1254;71279;-74
2024/04/20 10:28:26;;;;;;;5.50;2.60;;;;;;;18.12;37.03;99679.71;105859;1254;73859;-78
2024/04/20 10:30:58;;;;;;;2.50;2.30;;;;;;;18.14;37.48;99675.01;105862;1260;61194;-79
2024/04/20 10:33:33;;;;;;;2.50;2.10;;;;;;;18.37;38.54;99674.49;106008;1254;61166;-78
2024/04/20 10:36:02;;;;;;;4.00;2.60;;;;;;;18.72;37.39;99670.52;106289;1258;76479;-77
2024/04/20 10:38:34;;;;;;;2.90;2.30;;;;;;;18.89;36.83;99667.04;105977;1260;69028;-77
2024/04/20 10:41:17;;;;;;;4.10;2.70;;;;;;;18.95;36.78;99667.55;105900;1260;74348;-75
2024/04/20 10:43:46;;;;;;;2.30;2.10;;;;;;;19.02;36.81;99661.29;106350;1261;61199;-79
2024/04/20 10:46:17;;;;;;;3.50;2.50;;;;;;;19.06;36.90;99663.25;106655;1254;61694;-81
2024/04/20 10:48:52;;;;;;;2.40;2.00;;;;;;;19.06;37.07;99666.80;106641;1254;75327;-84
2024/04/20 10:51:20;;;;;;;3.40;2.70;;;;;;;18.82;36.70;99663.88;106839;1255;72500;-82
2024/04/20 10:54:02;;;;;;;2.70;2.30;;;;;;;18.45;36.99;99669.25;106646;1259;74884;-80
2024/04/20 10:56:35;;;;;;;3.90;2.50;;;;;;;18.17;37.18;99666.75;107797;1257;61325;-81
2024/04/20 10:59:04;;;;;;;2.40;2.20;;;;;;;18.02;37.63;99665.47;107346;1254;61272;-80
2024/04/20 11:01:32;;;;;;;2.60;2.30;;;;;;;17.99;38.04;99671.71;106878;1254;74976;-82
2024/04/20 11:04:00;;;;;;;2.50;2.10;;;;;;;18.02;37.33;99664.60;106188;1254;69901;-82
2024/04/20 11:06:28;;;;;;;2.30;2.10;;;;;;;18.11;36.96;99664.04;106717;1255;74318;-80
2024/04/20 11:08:56;;;;;;;3.00;2.30;;;;;;;18.55;37.79;99660.58;107021;1256;62204;-82
2024/04/20 11:11:24;;;;;;;2.30;2.10;;;;;;;19.32;37.72;99655.77;107550;1262;59797;-82
2024/04/20 11:14:01;;;;;;;2.50;2.30;;;;;;;20.23;37.14;99650.28;106997;1255;74995;-82
2024/04/20 11:16:29;;;;;;;2.50;2.10;;;;;;;21.11;36.25;99638.50;106450;1254;71149;-81
2024/04/20 11:18:56;;;;;;;5.70;5.20;;;;;;;21.81;35.15;99643.61;106049;1261;71727;-80
2024/04/20 11:21:27;;;;;;;3.30;2.60;;;;;;;22.34;32.56;99646.31;106565;1254;61326;-84
2024/04/20 11:23:55;;;;;;;3.30;2.20;;;;;;;22.29;31.87;99642.19;106414;1257;61644;-83
2024/04/20 11:26:23;;;;;;;2.20;2.00;;;;;;;22.17;32.32;99652.14;106634;1254;74388;-82
2024/04/20 11:28:51;;;;;;;2.70;2.30;;;;;;;22.27;32.51;99644.14;106963;1255;72204;-78
2024/04/20 11:31:19;;;;;;;3.90;2.50;;;;;;;22.60;32.27;99646.38;107032;1258;74769;-81
2024/04/20 11:33:51;;;;;;;2.20;2.00;;;;;;;22.94;31.79;99644.55;107333;1254;62134;-83
2024/04/20 11:36:19;;;;;;;2.70;2.30;;;;;;;22.97;30.84;99644.85;107938;1254;60058;-78